<?xml version="1.0" encoding="UTF-8" standalone="no" ?>
<gpx xmlns="http://www.topografix.com/GPX/1/1" xmlns:xsi="http://www.w3.org/2001/XMLSchema-instance" xsi:schemaLocation="http://www.topografix.com/GPX/1/1 http://www.topografix.com/GPX/1/1/gpx.xsd" version="1.1" creator="VisuGPX - https://www.visugpx.com">
  <metadata>
    <name>le stratégique</name>
  </metadata>
  <trk>
    <name><![CDATA[le stratégique]]></name>
    <trkseg>
      <trkpt lat="46.83536" lon="6.40059">
        <ele>1082</ele>
        <time>2021-11-19T17:50:58+01:00</time>
      </trkpt>
      <trkpt lat="46.83574" lon="6.40076">
        <ele>1082</ele>
        <time>2021-11-19T17:51:03+01:00</time>
      </trkpt>
      <trkpt lat="46.83656" lon="6.40042">
        <ele>1080</ele>
        <time>2021-11-19T17:51:08+01:00</time>
      </trkpt>
      <trkpt lat="46.83633" lon="6.40145">
        <ele>1081</ele>
        <time>2021-11-19T17:51:13+01:00</time>
      </trkpt>
      <trkpt lat="46.83979" lon="6.40102">
        <ele>1084</ele>
        <time>2021-11-19T17:51:18+01:00</time>
      </trkpt>
      <trkpt lat="46.83932" lon="6.40256">
        <ele>1086</ele>
        <time>2021-11-19T17:51:23+01:00</time>
      </trkpt>
      <trkpt lat="46.83911" lon="6.40441">
        <ele>1089</ele>
        <time>2021-11-19T17:51:28+01:00</time>
      </trkpt>
      <trkpt lat="46.84073" lon="6.40527">
        <ele>1093</ele>
        <time>2021-11-19T17:51:33+01:00</time>
      </trkpt>
      <trkpt lat="46.84243" lon="6.40531">
        <ele>1097</ele>
        <time>2021-11-19T17:51:38+01:00</time>
      </trkpt>
      <trkpt lat="46.84331" lon="6.40561">
        <ele>1098</ele>
        <time>2021-11-19T17:51:43+01:00</time>
      </trkpt>
      <trkpt lat="46.84402" lon="6.40716">
        <ele>1100</ele>
        <time>2021-11-19T17:51:48+01:00</time>
      </trkpt>
      <trkpt lat="46.84675" lon="6.40994">
        <ele>1114</ele>
        <time>2021-11-19T17:51:53+01:00</time>
      </trkpt>
      <trkpt lat="46.8486" lon="6.41196">
        <ele>1133</ele>
        <time>2021-11-19T17:51:58+01:00</time>
      </trkpt>
      <trkpt lat="46.8493" lon="6.41231">
        <ele>1140</ele>
        <time>2021-11-19T17:52:03+01:00</time>
      </trkpt>
      <trkpt lat="46.85047" lon="6.41183">
        <ele>1150</ele>
        <time>2021-11-19T17:52:08+01:00</time>
      </trkpt>
      <trkpt lat="46.85273" lon="6.40999">
        <ele>1173</ele>
        <time>2021-11-19T17:52:13+01:00</time>
      </trkpt>
      <trkpt lat="46.85388" lon="6.4108">
        <ele>1179</ele>
        <time>2021-11-19T17:52:18+01:00</time>
      </trkpt>
      <trkpt lat="46.8552" lon="6.41055">
        <ele>1171</ele>
        <time>2021-11-19T17:52:23+01:00</time>
      </trkpt>
      <trkpt lat="46.85444" lon="6.40887">
        <ele>1178</ele>
        <time>2021-11-19T17:52:28+01:00</time>
      </trkpt>
      <trkpt lat="46.85406" lon="6.4075">
        <ele>1182</ele>
        <time>2021-11-19T17:52:33+01:00</time>
      </trkpt>
      <trkpt lat="46.85385" lon="6.40698">
        <ele>1183</ele>
        <time>2021-11-19T17:52:38+01:00</time>
      </trkpt>
      <trkpt lat="46.85361" lon="6.40565">
        <ele>1185</ele>
        <time>2021-11-19T17:52:43+01:00</time>
      </trkpt>
      <trkpt lat="46.85411" lon="6.40441">
        <ele>1190</ele>
        <time>2021-11-19T17:52:48+01:00</time>
      </trkpt>
      <trkpt lat="46.85414" lon="6.40355">
        <ele>1190</ele>
        <time>2021-11-19T17:52:53+01:00</time>
      </trkpt>
      <trkpt lat="46.85452" lon="6.40248">
        <ele>1192</ele>
        <time>2021-11-19T17:52:58+01:00</time>
      </trkpt>
      <trkpt lat="46.85467" lon="6.40153">
        <ele>1193</ele>
        <time>2021-11-19T17:53:03+01:00</time>
      </trkpt>
      <trkpt lat="46.85508" lon="6.40033">
        <ele>1190</ele>
        <time>2021-11-19T17:53:08+01:00</time>
      </trkpt>
      <trkpt lat="46.85535" lon="6.39947">
        <ele>1191</ele>
        <time>2021-11-19T17:53:13+01:00</time>
      </trkpt>
      <trkpt lat="46.85514" lon="6.3987">
        <ele>1189</ele>
        <time>2021-11-19T17:53:18+01:00</time>
      </trkpt>
      <trkpt lat="46.85494" lon="6.39819">
        <ele>1187</ele>
        <time>2021-11-19T17:53:23+01:00</time>
      </trkpt>
      <trkpt lat="46.85508" lon="6.39656">
        <ele>1179</ele>
        <time>2021-11-19T17:53:28+01:00</time>
      </trkpt>
      <trkpt lat="46.85523" lon="6.39578">
        <ele>1174</ele>
        <time>2021-11-19T17:53:33+01:00</time>
      </trkpt>
      <trkpt lat="46.85561" lon="6.39424">
        <ele>1165</ele>
        <time>2021-11-19T17:53:38+01:00</time>
      </trkpt>
      <trkpt lat="46.8559" lon="6.39286">
        <ele>1153</ele>
        <time>2021-11-19T17:53:43+01:00</time>
      </trkpt>
      <trkpt lat="46.85605" lon="6.39291">
        <ele>1152</ele>
        <time>2021-11-19T17:53:48+01:00</time>
      </trkpt>
      <trkpt lat="46.8564" lon="6.39419">
        <ele>1154</ele>
        <time>2021-11-19T17:53:53+01:00</time>
      </trkpt>
      <trkpt lat="46.85664" lon="6.39419">
        <ele>1150</ele>
        <time>2021-11-19T17:53:58+01:00</time>
      </trkpt>
      <trkpt lat="46.85687" lon="6.39179">
        <ele>1138</ele>
        <time>2021-11-19T17:54:03+01:00</time>
      </trkpt>
      <trkpt lat="46.85728" lon="6.38926">
        <ele>1119</ele>
        <time>2021-11-19T17:54:08+01:00</time>
      </trkpt>
      <trkpt lat="46.85752" lon="6.38673">
        <ele>1096</ele>
        <time>2021-11-19T17:54:13+01:00</time>
      </trkpt>
      <trkpt lat="46.85678" lon="6.38621">
        <ele>1091</ele>
        <time>2021-11-19T17:54:18+01:00</time>
      </trkpt>
      <trkpt lat="46.85637" lon="6.38578">
        <ele>1086</ele>
        <time>2021-11-19T17:54:23+01:00</time>
      </trkpt>
      <trkpt lat="46.85532" lon="6.3857">
        <ele>1088</ele>
        <time>2021-11-19T17:54:28+01:00</time>
      </trkpt>
      <trkpt lat="46.85482" lon="6.38574">
        <ele>1087</ele>
        <time>2021-11-19T17:54:33+01:00</time>
      </trkpt>
      <trkpt lat="46.85406" lon="6.38634">
        <ele>1101</ele>
        <time>2021-11-19T17:54:38+01:00</time>
      </trkpt>
      <trkpt lat="46.85312" lon="6.38638">
        <ele>1097</ele>
        <time>2021-11-19T17:54:43+01:00</time>
      </trkpt>
      <trkpt lat="46.85241" lon="6.38673">
        <ele>1091</ele>
        <time>2021-11-19T17:54:48+01:00</time>
      </trkpt>
      <trkpt lat="46.85194" lon="6.38793">
        <ele>1092</ele>
        <time>2021-11-19T17:54:53+01:00</time>
      </trkpt>
      <trkpt lat="46.85141" lon="6.38862">
        <ele>1087</ele>
        <time>2021-11-19T17:54:58+01:00</time>
      </trkpt>
      <trkpt lat="46.85089" lon="6.38947">
        <ele>1087</ele>
        <time>2021-11-19T17:55:03+01:00</time>
      </trkpt>
      <trkpt lat="46.85027" lon="6.3896">
        <ele>1082</ele>
        <time>2021-11-19T17:55:08+01:00</time>
      </trkpt>
      <trkpt lat="46.84865" lon="6.3911">
        <ele>1081</ele>
        <time>2021-11-19T17:55:13+01:00</time>
      </trkpt>
      <trkpt lat="46.8481" lon="6.39162">
        <ele>1080</ele>
        <time>2021-11-19T17:55:18+01:00</time>
      </trkpt>
      <trkpt lat="46.84742" lon="6.39145">
        <ele>1080</ele>
        <time>2021-11-19T17:55:23+01:00</time>
      </trkpt>
      <trkpt lat="46.84684" lon="6.39179">
        <ele>1080</ele>
        <time>2021-11-19T17:55:28+01:00</time>
      </trkpt>
      <trkpt lat="46.8461" lon="6.39274">
        <ele>1080</ele>
        <time>2021-11-19T17:55:33+01:00</time>
      </trkpt>
      <trkpt lat="46.84569" lon="6.39368">
        <ele>1083</ele>
        <time>2021-11-19T17:55:38+01:00</time>
      </trkpt>
      <trkpt lat="46.84546" lon="6.39467">
        <ele>1084</ele>
        <time>2021-11-19T17:55:43+01:00</time>
      </trkpt>
      <trkpt lat="46.84513" lon="6.39544">
        <ele>1085</ele>
        <time>2021-11-19T17:55:48+01:00</time>
      </trkpt>
      <trkpt lat="46.84413" lon="6.39531">
        <ele>1080</ele>
        <time>2021-11-19T17:55:53+01:00</time>
      </trkpt>
      <trkpt lat="46.84325" lon="6.39518">
        <ele>1080</ele>
        <time>2021-11-19T17:55:58+01:00</time>
      </trkpt>
      <trkpt lat="46.84231" lon="6.3951">
        <ele>1081</ele>
        <time>2021-11-19T17:56:03+01:00</time>
      </trkpt>
      <trkpt lat="46.84237" lon="6.39553">
        <ele>1080</ele>
        <time>2021-11-19T17:56:08+01:00</time>
      </trkpt>
      <trkpt lat="46.8419" lon="6.39625">
        <ele>1081</ele>
        <time>2021-11-19T17:56:13+01:00</time>
      </trkpt>
      <trkpt lat="46.84152" lon="6.39677">
        <ele>1080</ele>
        <time>2021-11-19T17:56:18+01:00</time>
      </trkpt>
      <trkpt lat="46.8412" lon="6.39793">
        <ele>1080</ele>
        <time>2021-11-19T17:56:23+01:00</time>
      </trkpt>
      <trkpt lat="46.84044" lon="6.39917">
        <ele>1080</ele>
        <time>2021-11-19T17:56:28+01:00</time>
      </trkpt>
      <trkpt lat="46.83973" lon="6.40098">
        <ele>1084</ele>
        <time>2021-11-19T17:56:33+01:00</time>
      </trkpt>
      <trkpt lat="46.83818" lon="6.40119">
        <ele>1080</ele>
        <time>2021-11-19T17:56:38+01:00</time>
      </trkpt>
      <trkpt lat="46.83641" lon="6.40145">
        <ele>1081</ele>
        <time>2021-11-19T17:56:43+01:00</time>
      </trkpt>
      <trkpt lat="46.83656" lon="6.40037">
        <ele>1080</ele>
        <time>2021-11-19T17:56:48+01:00</time>
      </trkpt>
      <trkpt lat="46.83583" lon="6.40055">
        <ele>1081</ele>
        <time>2021-11-19T17:56:53+01:00</time>
      </trkpt>
      <trkpt lat="46.83542" lon="6.40042">
        <ele>1082</ele>
        <time>2021-11-19T17:56:58+01:00</time>
      </trkpt>
    </trkseg>
  </trk>
</gpx>